Archival Weather

Snohomish County (Paine Fld)

Everett, Washington (KPAE)

Report from: Thursday, November 16, 2023 6:11 AM PST
Current time: Sunday, June 16, 2024 11:41 PM PDT

Current weather – Weather history – Daily summaries
Weather forecast

Present weatherMist
Temperature2.8°C (37.0°F)
Wind chill0.2°C (32.4°F)
Dew point1.1°C (34.0°F)
Winds 5 kts (2.6 m/s, 5.8 mph) North (350°)
Visibility4 mi. (6.4 km)
Clouds Ceiling: Overcast 100 ft. (30 m)
Altimeter30.09 in.Hg (1019 mB)
Relative humidity89 %
Density altitude-1,577 ft. (-481 m)
Remarks Fully automated report
Automated weather observing station with precipitation discriminator
Flight conditions Low Instrument Meteorological Conditions
Raw dataKPAE 161411Z AUTO 35005KT 4SM BR OVC001 03/01 A3009 RMK AO2 T00280011
An error has occurred. This application may no longer respond until reloaded. Reload 🗙